Time;durP1;ratioP1;P1;durP2;ratioP2;P2;SDS_P1;SDS_P2;PMS_P1;PMS_P2;Temp;Humidity;BMP_temperature;BMP_pressure;BME280_temperature;BME280_humidity;BME280_pressure;Samples;Min_cycle;Max_cycle;Signal;HPM_P1;HPM_P2
2022/03/30 00:02:01;;;;;;;11.43;2.67;;;;;;;18.09;36.58;96219.66;5112352;28;20159;-32
2022/03/30 00:04:27;;;;;;;5.93;2.63;;;;;;;18.04;36.68;96222.34;5112788;28;20075;-32
2022/03/30 00:06:52;;;;;;;7.95;2.90;;;;;;;18.06;36.63;96217.09;5111628;28;20503;-32
2022/03/30 00:09:18;;;;;;;5.15;2.63;;;;;;;18.02;36.79;96220.06;5112930;28;20035;-32
2022/03/30 00:11:44;;;;;;;8.85;2.50;;;;;;;18.05;36.62;96208.13;5111270;28;20035;-32
2022/03/30 00:14:10;;;;;;;8.70;2.90;;;;;;;18.09;36.37;96222.41;5112438;28;20482;-32
2022/03/30 00:16:35;;;;;;;8.90;2.88;;;;;;;18.00;36.52;96197.84;5112743;28;20361;-32
2022/03/30 00:19:03;;;;;;;4.28;2.45;;;;;;;18.00;36.43;96203.34;5112460;28;20027;-32
2022/03/30 00:21:28;;;;;;;6.15;2.65;;;;;;;18.01;36.46;96215.06;5112639;28;20023;-32
2022/03/30 00:23:54;;;;;;;8.30;2.72;;;;;;;18.05;36.35;96199.88;5112434;28;20391;-32
2022/03/30 00:26:20;;;;;;;5.97;3.42;;;;;;;17.93;36.47;96201.75;5111756;28;20020;-32
2022/03/30 00:28:45;;;;;;;5.53;2.60;;;;;;;17.95;36.57;96187.53;5112094;28;20485;-32
2022/03/30 00:31:17;;;;;;;6.97;2.95;;;;;;;18.07;36.27;96191.94;5112532;28;20096;-33
2022/03/30 00:33:43;;;;;;;7.55;3.05;;;;;;;18.01;36.56;96182.88;5112544;28;20024;-32
2022/03/30 00:36:09;;;;;;;8.70;2.85;;;;;;;18.06;36.44;96179.44;5112620;28;20415;-32
2022/03/30 00:38:35;;;;;;;8.30;3.13;;;;;;;18.01;36.68;96187.63;5112142;28;20114;-32
2022/03/30 00:41:01;;;;;;;6.05;2.88;;;;;;;17.98;36.71;96183.84;5112994;28;20113;-32
2022/03/30 00:43:27;;;;;;;5.47;2.70;;;;;;;17.98;36.57;96175.63;5112596;27;20391;-32
2022/03/30 00:45:52;;;;;;;5.53;3.38;;;;;;;17.98;36.80;96167.38;5114133;28;20023;-33
2022/03/30 00:48:18;;;;;;;7.47;2.80;;;;;;;17.96;36.66;96164.38;5113070;28;20069;-32
2022/03/30 00:50:44;;;;;;;9.40;3.65;;;;;;;17.99;36.42;96165.41;5113100;28;20425;-32
2022/03/30 00:53:09;;;;;;;6.25;2.63;;;;;;;17.99;36.58;96162.66;5112098;28;20024;-32
2022/03/30 00:55:35;;;;;;;5.95;2.22;;;;;;;17.90;36.72;96177.28;5112371;28;20015;-35
2022/03/30 00:58:01;;;;;;;5.68;2.60;;;;;;;17.86;36.75;96169.25;5113581;28;20073;-32
2022/03/30 01:00:27;;;;;;;7.30;2.80;;;;;;;17.92;36.68;96158.34;5114191;28;20400;-32
2022/03/30 01:02:53;;;;;;;7.15;3.15;;;;;;;17.89;36.77;96149.09;5113827;28;20043;-32
2022/03/30 01:05:19;;;;;;;8.45;3.03;;;;;;;17.87;36.65;96153.53;5113857;28;20369;-32
2022/03/30 01:07:45;;;;;;;7.13;3.00;;;;;;;17.90;36.70;96149.84;5114012;28;20031;-32
2022/03/30 01:10:13;;;;;;;7.93;2.65;;;;;;;17.90;36.78;96147.09;5113894;28;20103;-33
2022/03/30 01:12:39;;;;;;;8.40;2.90;;;;;;;17.94;36.69;96153.09;5113760;28;20533;-32
2022/03/30 01:15:07;;;;;;;7.80;3.28;;;;;;;17.91;36.79;96146.63;5112447;28;20027;-32
2022/03/30 01:17:33;;;;;;;6.28;3.03;;;;;;;17.91;36.78;96140.38;5113859;28;20502;-32
2022/03/30 01:19:58;;;;;;;7.90;3.25;;;;;;;17.92;36.61;96125.44;5113758;28;20028;-32
2022/03/30 01:22:24;;;;;;;6.60;3.20;;;;;;;17.91;36.71;96132.91;5113871;28;20428;-32
2022/03/30 01:24:49;;;;;;;7.57;2.90;;;;;;;17.86;36.82;96132.81;5113700;28;20028;-32
2022/03/30 01:27:15;;;;;;;5.68;3.10;;;;;;;17.99;36.62;96124.25;5113805;28;20024;-32
2022/03/30 01:32:26;;;;;;;8.43;2.92;;;;;;;17.86;36.89;96121.84;5113750;28;20440;-33
2022/03/30 01:35:03;;;;;;;9.80;3.28;;;;;;;17.92;36.77;96130.91;5113519;28;20490;-32
2022/03/30 01:37:31;;;;;;;8.88;3.17;;;;;;;17.81;36.92;96114.31;5117249;28;20031;-32
2022/03/30 01:40:00;;;;;;;8.52;3.53;;;;;;;17.86;37.03;96121.84;5117741;28;20028;-32
2022/03/30 01:42:27;;;;;;;5.20;2.85;;;;;;;17.81;37.02;96114.31;5117710;28;20024;-32
2022/03/30 01:44:54;;;;;;;8.27;3.08;;;;;;;17.86;36.95;96119.88;5117570;28;20050;-32
2022/03/30 01:47:20;;;;;;;6.70;3.08;;;;;;;17.80;36.99;96113.53;5117737;28;20027;-32
2022/03/30 01:49:46;;;;;;;8.77;3.20;;;;;;;17.83;36.89;96103.59;5117638;28;20030;-32
2022/03/30 01:52:13;;;;;;;10.40;3.20;;;;;;;17.82;37.17;96104.84;5117431;28;20055;-32
2022/03/30 01:54:41;;;;;;;10.32;3.05;;;;;;;17.86;37.03;96105.41;5117459;28;20024;-32
2022/03/30 01:57:08;;;;;;;5.60;3.00;;;;;;;17.79;37.09;96101.09;5117354;28;20029;-32
2022/03/30 01:59:34;;;;;;;8.30;3.03;;;;;;;17.78;36.99;96105.06;5116279;28;20491;-32
2022/03/30 02:02:01;;;;;;;5.07;2.83;;;;;;;17.72;37.09;96101.50;5117119;28;20093;-32
2022/03/30 02:04:26;;;;;;;6.72;2.50;;;;;;;17.77;36.91;96103.56;5117365;28;20019;-32
2022/03/30 02:06:52;;;;;;;5.25;2.65;;;;;;;17.83;36.67;96095.38;5117387;28;20367;-32
2022/03/30 02:09:18;;;;;;;9.18;3.03;;;;;;;17.80;36.94;96096.38;5117380;28;20031;-32
2022/03/30 02:11:43;;;;;;;7.10;3.42;;;;;;;17.74;37.07;96088.06;5117117;28;20024;-33
2022/03/30 02:14:09;;;;;;;6.30;3.08;;;;;;;17.80;36.86;96091.59;5117091;28;20027;-32
2022/03/30 02:16:35;;;;;;;6.72;2.72;;;;;;;17.75;37.17;96094.31;5117095;28;20082;-32
2022/03/30 02:19:01;;;;;;;9.30;3.30;;;;;;;17.75;36.96;96092.31;5117169;28;20349;-32
2022/03/30 02:21:27;;;;;;;4.50;2.47;;;;;;;17.80;36.84;96079.91;5117371;28;20026;-33
2022/03/30 02:23:52;;;;;;;6.30;2.88;;;;;;;17.79;36.77;96086.63;5116922;28;20023;-32
2022/03/30 02:26:18;;;;;;;5.55;2.80;;;;;;;17.80;36.92;96079.91;5116968;28;20353;-32
2022/03/30 02:28:51;;;;;;;8.45;2.80;;;;;;;17.79;37.08;96073.66;5116784;28;20020;-32
2022/03/30 02:31:22;;;;;;;6.63;2.53;;;;;;;17.81;36.72;96075.91;5116932;28;20425;-32
2022/03/30 02:33:48;;;;;;;6.22;2.90;;;;;;;17.76;36.94;96071.13;5116737;28;20067;-32
2022/03/30 02:36:14;;;;;;;7.43;3.30;;;;;;;17.73;36.79;96061.88;5116906;28;20058;-32
2022/03/30 02:38:41;;;;;;;8.05;3.63;;;;;;;17.69;37.05;96064.06;5116569;28;20615;-32
2022/03/30 02:41:07;;;;;;;6.60;3.35;;;;;;;17.74;36.98;96063.38;5116787;28;20491;-33
2022/03/30 02:43:34;;;;;;;6.72;3.00;;;;;;;17.59;37.23;96048.97;5114861;27;20478;-32
2022/03/30 02:46:00;;;;;;;6.75;2.70;;;;;;;17.62;37.09;96047.25;5114430;28;20073;-32
2022/03/30 02:48:28;;;;;;;9.52;3.33;;;;;;;17.69;37.02;96038.63;5114627;28;20020;-32
2022/03/30 02:51:00;;;;;;;7.18;2.95;;;;;;;17.58;37.23;96039.97;5115069;28;20019;-32
2022/03/30 02:53:26;;;;;;;7.55;2.88;;;;;;;17.58;37.35;96031.75;5115036;28;20030;-32
2022/03/30 02:55:52;;;;;;;7.63;3.40;;;;;;;17.56;37.15;96031.47;5116264;28;20020;-32
2022/03/30 02:58:21;;;;;;;6.30;3.20;;;;;;;17.64;37.22;96031.09;5115253;28;20364;-32
2022/03/30 03:00:47;;;;;;;7.85;2.90;;;;;;;17.65;37.09;96018.91;5116374;27;20030;-32
2022/03/30 03:03:12;;;;;;;6.07;2.90;;;;;;;17.66;37.04;96023.91;5116198;28;20044;-32
2022/03/30 03:05:41;;;;;;;4.97;2.63;;;;;;;17.74;37.04;96016.75;5116337;28;20391;-32
2022/03/30 03:08:08;;;;;;;6.43;3.08;;;;;;;17.71;36.79;96011.47;5116023;28;20053;-33
2022/03/30 03:10:38;;;;;;;10.15;3.33;;;;;;;17.72;37.08;96005.50;5115966;28;20034;-32
2022/03/30 03:13:04;;;;;;;5.90;2.97;;;;;;;17.68;37.10;96002.22;5115958;28;20024;-32
2022/03/30 03:15:31;;;;;;;6.28;2.70;;;;;;;17.65;37.03;95999.69;5114943;28;20050;-32
2022/03/30 03:17:57;;;;;;;6.75;2.72;;;;;;;17.67;37.11;95997.25;5114628;28;20084;-32
2022/03/30 03:20:23;;;;;;;9.32;3.30;;;;;;;17.68;37.10;95990.53;5115787;28;20591;-32
2022/03/30 03:22:49;;;;;;;8.93;3.15;;;;;;;17.68;37.27;95982.28;5116067;28;20023;-32
2022/03/30 03:25:15;;;;;;;7.68;2.90;;;;;;;17.67;37.21;95991.75;5116006;28;20027;-32
2022/03/30 03:27:40;;;;;;;6.43;3.03;;;;;;;17.75;36.95;95984.59;5115956;28;20023;-32
2022/03/30 03:30:07;;;;;;;7.88;3.10;;;;;;;17.70;36.96;95974.31;5115842;28;20045;-32
2022/03/30 03:32:32;;;;;;;6.45;3.22;;;;;;;17.58;37.58;95976.91;5115454;28;20020;-32
2022/03/30 03:34:58;;;;;;;5.03;2.95;;;;;;;17.63;37.43;95972.75;5115663;28;20030;-32
2022/03/30 03:37:24;;;;;;;5.47;2.90;;;;;;;17.63;37.58;95971.97;5115589;28;20022;-32
2022/03/30 03:39:49;;;;;;;8.68;3.30;;;;;;;17.63;37.44;95975.50;5115451;28;20023;-32
2022/03/30 03:42:16;;;;;;;8.07;3.20;;;;;;;17.59;37.60;95977.66;5115498;28;20378;-32
2022/03/30 03:44:42;;;;;;;7.30;2.60;;;;;;;17.62;37.48;95987.69;5114067;28;20058;-32
2022/03/30 03:47:09;;;;;;;6.28;2.75;;;;;;;17.58;37.48;95985.13;5115438;28;20395;-32
2022/03/30 03:49:36;;;;;;;9.10;2.88;;;;;;;17.58;37.49;95984.38;5115114;28;20016;-32
2022/03/30 03:52:02;;;;;;;8.55;3.28;;;;;;;17.64;37.37;95982.50;5115293;28;20023;-32
2022/03/30 03:54:28;;;;;;;5.57;2.80;;;;;;;17.60;37.43;95990.16;5115365;28;20452;-32
2022/03/30 03:56:54;;;;;;;10.60;4.72;;;;;;;17.63;37.43;95986.47;5115201;28;20103;-32
2022/03/30 03:59:19;;;;;;;9.50;3.80;;;;;;;17.58;37.64;95985.13;5115176;28;20027;-32
2022/03/30 04:01:45;;;;;;;9.48;4.15;;;;;;;17.67;37.21;95978.78;5114867;28;20447;-32
2022/03/30 04:04:10;;;;;;;9.70;4.32;;;;;;;17.60;37.50;95988.16;5115010;28;20032;-32
2022/03/30 04:06:36;;;;;;;12.95;4.50;;;;;;;17.54;37.86;95981.13;5115142;28;20019;-32
2022/03/30 04:09:03;;;;;;;12.27;4.28;;;;;;;17.57;37.95;95980.88;5113496;28;20084;-32
2022/03/30 04:11:28;;;;;;;9.82;4.63;;;;;;;17.50;38.12;95984.06;5113462;28;20114;-32
2022/03/30 04:13:55;;;;;;;8.80;3.72;;;;;;;17.63;37.73;95980.22;5115117;28;20106;-32
2022/03/30 04:16:21;;;;;;;7.47;3.50;;;;;;;17.56;38.21;95976.63;5114608;27;20038;-32
2022/03/30 04:18:46;;;;;;;7.25;4.43;;;;;;;17.59;38.27;95967.44;5114681;28;20072;-33
2022/03/30 04:21:12;;;;;;;9.60;3.42;;;;;;;17.62;38.12;95965.75;5114808;28;20015;-32
2022/03/30 04:23:38;;;;;;;7.85;3.40;;;;;;;17.57;38.44;95969.91;5113323;28;20031;-33
2022/03/30 04:26:04;;;;;;;6.70;3.60;;;;;;;17.47;39.08;95968.56;5114703;28;20023;-32
2022/03/30 04:28:30;;;;;;;9.52;3.17;;;;;;;17.48;38.77;95972.81;5114478;27;20080;-32
2022/03/30 04:30:55;;;;;;;8.10;3.78;;;;;;;17.52;39.09;95972.63;5114430;28;20102;-32
2022/03/30 04:33:21;;;;;;;10.40;3.28;;;;;;;17.55;39.11;95977.91;5114348;28;20035;-32
2022/03/30 04:35:47;;;;;;;7.80;3.85;;;;;;;17.54;39.50;95981.13;5113137;28;20055;-32
2022/03/30 04:38:14;;;;;;;7.07;3.15;;;;;;;17.47;39.97;95968.56;5114191;28;20106;-32
2022/03/30 04:40:40;;;;;;;8.48;3.38;;;;;;;17.41;40.46;95967.78;5114457;28;20055;-32
2022/03/30 04:43:07;;;;;;;7.18;3.28;;;;;;;17.46;40.05;95972.56;5114669;28;20020;-32
2022/03/30 04:45:33;;;;;;;9.82;3.55;;;;;;;17.42;40.13;95974.78;5114312;28;20023;-32
2022/03/30 04:47:59;;;;;;;8.27;3.25;;;;;;;17.40;40.53;95966.28;5114241;28;20031;-32
2022/03/30 04:50:26;;;;;;;6.97;3.17;;;;;;;17.39;41.10;95972.22;5114173;28;20027;-32
2022/03/30 04:52:52;;;;;;;7.00;3.03;;;;;;;17.29;41.62;95977.13;5113975;28;20032;-32
2022/03/30 04:55:19;;;;;;;8.45;3.38;;;;;;;17.33;41.59;95972.16;5114132;28;20072;-32
2022/03/30 04:57:45;;;;;;;9.90;3.70;;;;;;;17.29;41.40;95982.59;5114043;28;20051;-32
2022/03/30 05:00:12;;;;;;;9.70;3.10;;;;;;;17.31;42.13;95976.63;5114401;28;20023;-32
2022/03/30 05:02:38;;;;;;;6.55;2.92;;;;;;;17.32;42.19;95976.13;5110347;28;20506;-32
2022/03/30 05:05:05;;;;;;;10.35;4.00;;;;;;;17.33;42.37;95979.63;5114146;28;20101;-32
2022/03/30 05:07:31;;;;;;;13.93;4.07;;;;;;;17.34;42.30;95983.88;5114147;28;20023;-32
2022/03/30 05:10:00;;;;;;;10.63;4.43;;;;;;;17.41;41.98;95973.25;5111555;28;20112;-32
2022/03/30 05:12:26;;;;;;;7.78;3.35;;;;;;;17.37;42.28;95972.72;5111274;28;20047;-32
2022/03/30 05:14:52;;;;;;;9.52;3.90;;;;;;;17.45;42.13;95973.78;5112029;28;20027;-32
2022/03/30 05:17:18;;;;;;;13.32;3.95;;;;;;;17.41;42.38;95967.03;5111858;28;20023;-32
2022/03/30 05:19:47;;;;;;;13.07;3.72;;;;;;;17.45;42.73;95964.81;5111824;28;20036;-32
2022/03/30 05:22:12;;;;;;;10.93;3.47;;;;;;;17.41;42.88;95956.06;5111563;28;20486;-32
2022/03/30 05:24:38;;;;;;;10.63;3.30;;;;;;;17.36;43.03;95956.75;5111827;28;20067;-33
2022/03/30 05:27:04;;;;;;;11.43;3.95;;;;;;;17.35;42.99;95952.50;5111766;28;20349;-32
2022/03/30 05:29:30;;;;;;;11.73;3.65;;;;;;;17.38;42.88;95938.59;5111435;28;20049;-32
2022/03/30 05:31:56;;;;;;;10.82;3.55;;;;;;;17.40;43.01;95943.59;5109992;28;20024;-32
2022/03/30 05:34:22;;;;;;;11.80;4.57;;;;;;;17.37;42.96;95937.06;5111392;28;20026;-32
2022/03/30 05:36:48;;;;;;;16.17;4.20;;;;;;;17.34;43.78;95948.25;5111618;28;20102;-32
2022/03/30 05:39:14;;;;;;;11.60;3.97;;;;;;;17.35;43.63;95945.03;5111785;28;20102;-33
2022/03/30 05:41:40;;;;;;;9.73;3.25;;;;;;;17.24;44.06;95942.16;5111733;28;20020;-32
2022/03/30 05:44:05;;;;;;;10.90;3.83;;;;;;;17.35;43.78;95933.31;5111581;28;20031;-32
2022/03/30 05:46:31;;;;;;;12.93;3.78;;;;;;;17.39;43.44;95931.88;5110986;28;20055;-32
2022/03/30 05:48:56;;;;;;;8.93;3.20;;;;;;;17.35;43.61;95931.31;5111203;28;20023;-32
2022/03/30 05:51:22;;;;;;;11.02;3.38;;;;;;;17.34;43.59;95940.78;5111073;28;20019;-33
2022/03/30 05:53:48;;;;;;;6.18;3.22;;;;;;;17.36;43.50;95937.56;5111326;28;20523;-32
2022/03/30 05:56:14;;;;;;;10.05;3.67;;;;;;;17.27;44.06;95935.72;5111401;28;20027;-32
2022/03/30 05:58:40;;;;;;;8.80;3.35;;;;;;;17.29;44.17;95932.50;5111103;28;20031;-32
2022/03/30 06:01:06;;;;;;;12.00;3.72;;;;;;;17.33;43.76;95925.56;5111705;28;20023;-32
2022/03/30 06:03:37;;;;;;;11.55;3.80;;;;;;;17.22;44.04;95934.41;5113280;28;20030;-32
2022/03/30 06:06:05;;;;;;;10.27;3.80;;;;;;;17.26;44.34;95928.00;5131863;28;20118;-33
2022/03/30 06:08:32;;;;;;;12.38;4.90;;;;;;;17.27;44.00;95916.53;5131746;28;20494;-32
2022/03/30 06:10:58;;;;;;;10.65;4.90;;;;;;;17.22;43.93;95911.75;5131557;28;20035;-32
2022/03/30 06:13:23;;;;;;;15.05;5.75;;;;;;;17.26;44.02;95906.81;5131514;28;20424;-32
2022/03/30 06:15:49;;;;;;;10.63;4.55;;;;;;;17.25;44.04;95910.78;5126312;28;20043;-32
2022/03/30 06:18:15;;;;;;;12.38;4.70;;;;;;;17.26;44.18;95906.06;5111080;28;20024;-32
2022/03/30 06:20:41;;;;;;;9.32;4.03;;;;;;;17.28;43.68;95909.06;5111153;28;20028;-32
2022/03/30 06:23:07;;;;;;;10.70;4.72;;;;;;;17.23;43.93;95900.31;5111424;28;20026;-32
2022/03/30 06:25:33;;;;;;;11.32;4.28;;;;;;;17.24;44.10;95903.81;5096601;28;20544;-32
2022/03/30 06:27:59;;;;;;;9.13;4.30;;;;;;;17.18;44.12;95895.50;5096513;28;20036;-32
2022/03/30 06:30:24;;;;;;;13.25;4.30;;;;;;;17.24;44.44;95901.06;5094760;28;20407;-32
2022/03/30 06:32:52;;;;;;;7.93;3.70;;;;;;;17.19;44.42;95888.03;5114639;28;20046;-32
2022/03/30 06:35:19;;;;;;;8.15;3.72;;;;;;;17.18;44.58;95890.03;5114403;28;20027;-32
2022/03/30 06:37:46;;;;;;;10.30;4.25;;;;;;;17.26;44.03;95884.13;5114862;28;20020;-32
2022/03/30 06:40:14;;;;;;;7.00;3.58;;;;;;;17.21;44.28;95874.63;5114623;28;20065;-32
2022/03/30 06:42:40;;;;;;;8.95;4.15;;;;;;;17.17;44.52;95872.13;5114727;28;20026;-32
2022/03/30 06:45:07;;;;;;;11.27;4.32;;;;;;;17.25;44.27;95858.72;5114196;28;20023;-32
2022/03/30 06:47:33;;;;;;;8.60;3.60;;;;;;;17.24;44.35;95865.44;5096211;28;20353;-32
2022/03/30 06:49:59;;;;;;;11.57;4.25;;;;;;;17.20;44.37;95845.72;5114373;28;20102;-32
2022/03/30 06:52:25;;;;;;;6.65;3.13;;;;;;;17.20;44.49;95832.75;5114368;28;20816;-31
2022/03/30 06:54:50;;;;;;;10.65;3.80;;;;;;;17.20;44.45;95827.28;5114378;28;20051;-32
2022/03/30 06:57:16;;;;;;;8.15;4.00;;;;;;;17.23;44.21;95836.53;5114297;28;20020;-32
2022/03/30 06:59:42;;;;;;;9.25;4.32;;;;;;;17.21;44.67;95839.00;5114180;28;20023;-32
2022/03/30 07:02:08;;;;;;;9.40;4.40;;;;;;;17.19;44.49;95831.25;5114251;28;20063;-32
2022/03/30 07:04:35;;;;;;;9.65;4.35;;;;;;;17.15;44.70;95838.19;5125081;27;20405;-33
2022/03/30 07:12:31;;;;;;;7.35;3.90;;;;;;;17.21;44.41;95820.56;5136481;27;20026;-32
2022/03/30 07:14:57;;;;;;;9.60;4.13;;;;;;;17.24;44.45;95819.59;5136358;27;20022;-32
2022/03/30 07:17:22;;;;;;;8.82;4.22;;;;;;;17.19;44.93;95812.06;5123209;27;20501;-32
2022/03/30 07:19:48;;;;;;;8.18;4.15;;;;;;;17.11;44.81;95813.75;5127447;27;20027;-33
2022/03/30 07:22:14;;;;;;;9.02;3.90;;;;;;;17.14;44.96;95809.31;5104064;27;20023;-32
2022/03/30 07:24:40;;;;;;;14.07;3.85;;;;;;;17.21;44.30;95795.91;5134148;27;20038;-32
2022/03/30 07:27:06;;;;;;;10.75;4.03;;;;;;;17.16;44.85;95793.13;5120023;27;20024;-32
2022/03/30 07:29:32;;;;;;;9.82;3.35;;;;;;;17.21;44.56;95789.66;5113748;28;20027;-32
2022/03/30 07:31:58;;;;;;;9.25;3.95;;;;;;;17.22;44.59;95796.66;5113379;28;20050;-32
2022/03/30 07:34:23;;;;;;;9.07;3.95;;;;;;;17.15;44.69;95797.09;5124902;27;20042;-32
2022/03/30 07:36:49;;;;;;;9.80;3.70;;;;;;;17.13;44.82;95794.09;5134013;27;20133;-32
2022/03/30 07:39:15;;;;;;;9.13;3.65;;;;;;;17.12;44.81;95798.81;5128522;27;20031;-32
2022/03/30 07:41:41;;;;;;;16.77;4.43;;;;;;;17.20;44.69;95799.88;5134031;27;20030;-31
2022/03/30 07:44:06;;;;;;;8.75;3.70;;;;;;;17.17;44.61;95800.13;5133488;27;20027;-31
2022/03/30 07:46:33;;;;;;;9.40;3.67;;;;;;;17.18;44.66;95802.34;5131656;27;20099;-32
2022/03/30 07:48:59;;;;;;;8.38;3.63;;;;;;;17.20;44.45;95799.13;5133827;27;20031;-32
2022/03/30 07:51:24;;;;;;;10.20;4.15;;;;;;;17.09;44.81;95794.31;5132648;27;20407;-32
2022/03/30 07:53:50;;;;;;;8.27;4.10;;;;;;;17.11;44.85;95796.56;5133473;27;20084;-32
2022/03/30 07:56:16;;;;;;;8.38;3.72;;;;;;;17.13;45.21;95811.28;5133095;27;20124;-32
2022/03/30 07:58:42;;;;;;;10.05;4.00;;;;;;;17.13;45.07;95810.53;5133443;27;20059;-32
2022/03/30 08:01:08;;;;;;;8.70;3.70;;;;;;;17.10;45.08;95806.78;5133432;27;20030;-32
2022/03/30 08:03:34;;;;;;;10.02;3.58;;;;;;;17.14;45.01;95806.56;5115089;27;20027;-32
2022/03/30 08:06:00;;;;;;;11.25;4.65;;;;;;;17.18;45.10;95807.09;5133644;27;20023;-32
2022/03/30 08:08:26;;;;;;;9.63;4.60;;;;;;;17.13;44.90;95813.28;5133135;27;20027;-32
2022/03/30 08:10:53;;;;;;;8.05;3.95;;;;;;;17.13;44.86;95816.00;5133552;27;20054;-32
2022/03/30 08:13:19;;;;;;;7.65;4.15;;;;;;;17.06;45.40;95819.19;5133349;27;20027;-32
2022/03/30 08:15:45;;;;;;;6.65;3.38;;;;;;;17.04;45.43;95819.66;5120003;27;20034;-32
2022/03/30 08:18:11;;;;;;;10.82;4.10;;;;;;;16.04;49.28;95827.44;5112608;28;20023;-31
2022/03/30 08:23:21;;;;;;;10.98;4.30;;;;;;;16.55;46.81;95822.59;5112663;28;20435;-31
2022/03/30 08:25:47;;;;;;;10.32;4.05;;;;;;;16.66;46.48;95818.03;5112485;28;20023;-31
2022/03/30 08:28:12;;;;;;;11.85;5.57;;;;;;;16.71;46.45;95806.38;5094012;28;20046;-31
2022/03/30 08:30:38;;;;;;;11.40;3.97;;;;;;;16.79;46.05;95807.47;5112466;28;20024;-31
2022/03/30 08:33:04;;;;;;;10.30;4.18;;;;;;;16.85;46.04;95800.06;5112026;28;20501;-31
2022/03/30 08:35:31;;;;;;;9.05;4.22;;;;;;;16.83;46.10;95797.03;5112309;28;20034;-31
2022/03/30 08:37:57;;;;;;;8.63;3.85;;;;;;;16.82;46.04;95801.00;5112298;28;20165;-31
2022/03/30 08:40:24;;;;;;;15.35;4.45;;;;;;;16.88;45.86;95807.31;5093907;28;20043;-31
2022/03/30 08:42:50;;;;;;;10.85;4.55;;;;;;;16.88;45.96;95823.75;5112149;28;20047;-32
2022/03/30 08:45:16;;;;;;;11.07;4.07;;;;;;;16.92;45.84;95811.81;5111491;28;20073;-31
2022/03/30 08:47:41;;;;;;;12.95;4.55;;;;;;;16.90;46.03;95815.03;5110290;28;20027;-31
2022/03/30 08:50:08;;;;;;;12.10;4.55;;;;;;;16.90;45.85;95815.03;5112271;28;20058;-31
2022/03/30 08:52:34;;;;;;;12.70;4.40;;;;;;;16.85;45.92;95813.00;5112228;28;20376;-31
2022/03/30 08:55:01;;;;;;;11.68;5.13;;;;;;;16.84;46.43;95806.00;5112170;28;20034;-31
2022/03/30 08:57:27;;;;;;;10.20;4.07;;;;;;;16.88;45.79;95807.31;5111900;28;20361;-31
2022/03/30 09:00:02;;;;;;;12.00;4.82;;;;;;;16.86;46.41;95809.78;5112018;28;20030;-31
2022/03/30 09:02:41;;;;;;;10.77;4.88;;;;;;;16.93;46.16;95802.38;5111886;28;20047;-31
2022/03/30 09:05:12;;;;;;;13.32;4.80;;;;;;;16.93;46.12;95794.16;5111992;28;20039;-31
2022/03/30 09:07:39;;;;;;;14.10;5.40;;;;;;;16.84;46.55;95778.63;5111772;28;20047;-31
2022/03/30 09:10:05;;;;;;;10.38;5.18;;;;;;;16.90;46.17;95770.47;5111876;28;20027;-31
2022/03/30 09:12:31;;;;;;;11.45;5.93;;;;;;;16.76;46.57;95747.44;5111871;28;20024;-31
2022/03/30 09:15:01;;;;;;;11.93;4.60;;;;;;;16.82;46.61;95748.22;5118349;28;20500;-31
2022/03/30 09:17:37;;;;;;;14.07;4.82;;;;;;;16.81;46.52;95739.25;5132441;27;20375;-31
2022/03/30 09:20:11;;;;;;;13.48;5.07;;;;;;;16.82;46.64;95735.28;5132255;28;20483;-31
2022/03/30 09:22:44;;;;;;;14.85;4.97;;;;;;;16.80;46.66;95737.78;5132337;28;20027;-31
2022/03/30 09:25:11;;;;;;;12.32;4.47;;;;;;;16.86;46.19;95744.03;5132338;28;20035;-31
2022/03/30 09:27:41;;;;;;;9.10;4.68;;;;;;;16.92;46.19;95741.38;5132127;28;20035;-31
2022/03/30 09:30:09;;;;;;;13.32;5.07;;;;;;;16.93;46.19;95748.34;5132251;28;20027;-31
2022/03/30 09:32:36;;;;;;;12.52;4.95;;;;;;;16.88;46.30;95729.88;5131783;28;20105;-31
2022/03/30 09:35:01;;;;;;;13.68;4.95;;;;;;;16.91;46.46;95739.13;5126081;28;20031;-31
2022/03/30 09:37:27;;;;;;;12.93;4.75;;;;;;;16.84;46.46;95732.81;5128932;28;20038;-31
2022/03/30 09:39:54;;;;;;;11.38;5.03;;;;;;;16.88;46.57;95730.63;5111644;28;20640;-31
2022/03/30 09:42:20;;;;;;;12.40;5.28;;;;;;;16.92;46.55;95735.13;5111734;28;20023;-31
2022/03/30 09:44:48;;;;;;;15.48;4.75;;;;;;;16.81;46.95;95722.09;5111333;28;20035;-31
2022/03/30 09:47:14;;;;;;;10.15;4.70;;;;;;;16.76;47.25;95726.28;5110120;28;20467;-31
2022/03/30 09:49:42;;;;;;;13.20;4.90;;;;;;;16.90;46.61;95715.69;5111547;28;20034;-31
2022/03/30 09:52:19;;;;;;;12.90;5.45;;;;;;;16.86;46.76;95721.38;5111513;28;20039;-31
2022/03/30 09:54:50;;;;;;;11.10;5.00;;;;;;;16.90;46.61;95721.19;5111499;28;20065;-31
2022/03/30 09:57:19;;;;;;;13.65;4.97;;;;;;;16.80;46.94;95693.22;5112619;28;20127;-31
2022/03/30 10:00:08;;;;;;;11.57;5.38;;;;;;;16.83;47.17;95695.72;5115411;28;20102;-32
2022/03/30 10:02:36;;;;;;;12.93;5.40;;;;;;;16.81;47.08;95684.50;5115280;28;20051;-31
2022/03/30 10:05:04;;;;;;;10.65;4.40;;;;;;;16.79;47.09;95683.50;5116650;27;20035;-32
2022/03/30 10:07:30;;;;;;;13.15;4.88;;;;;;;16.77;47.39;95681.25;5137897;27;20027;-31
2022/03/30 10:09:58;;;;;;;14.88;5.65;;;;;;;16.74;47.48;95670.50;5137719;27;20019;-31
2022/03/30 10:12:26;;;;;;;13.50;5.90;;;;;;;16.68;47.92;95672.44;5137828;27;20015;-31
2022/03/30 10:14:53;;;;;;;12.50;5.85;;;;;;;16.61;47.62;95668.13;5137683;27;20026;-31
2022/03/30 10:17:20;;;;;;;12.30;5.65;;;;;;;16.75;47.47;95661.78;5137666;27;20494;-31
2022/03/30 10:19:46;;;;;;;14.57;5.28;;;;;;;16.75;47.41;95659.06;5137673;27;20031;-31
2022/03/30 10:22:35;;;;;;;13.57;5.55;;;;;;;16.83;47.42;95660.09;5137521;27;20071;-31
2022/03/30 10:25:26;;;;;;;14.10;6.28;;;;;;;16.74;47.39;95646.59;5095854;27;20038;-31
2022/03/30 10:27:58;;;;;;;14.00;5.93;;;;;;;16.79;47.31;95631.47;5137520;27;20379;-31
2022/03/30 10:30:32;;;;;;;14.00;5.30;;;;;;;16.49;48.67;95655.56;5137492;27;20027;-31
2022/03/30 10:33:00;;;;;;;12.30;5.72;;;;;;;16.54;48.51;95641.19;5137436;27;20083;-31
2022/03/30 10:35:44;;;;;;;9.45;5.60;;;;;;;16.66;47.85;95631.84;5137162;27;20112;-32
2022/03/30 10:38:10;;;;;;;12.77;5.38;;;;;;;16.75;47.42;95631.69;5137130;27;20046;-31
2022/03/30 10:40:37;;;;;;;13.13;5.32;;;;;;;16.77;47.28;95621.00;5137391;27;20035;-32
2022/03/30 10:43:06;;;;;;;9.80;5.15;;;;;;;16.80;47.21;95619.28;5137145;27;20034;-31
2022/03/30 10:45:55;;;;;;;9.85;4.90;;;;;;;16.77;47.46;95609.28;5137160;27;20027;-31
2022/03/30 10:48:29;;;;;;;10.23;4.97;;;;;;;16.76;47.36;95613.25;5136950;27;20075;-31
2022/03/30 10:51:08;;;;;;;10.85;4.80;;;;;;;16.77;47.03;95606.56;5118696;27;20030;-31
2022/03/30 10:53:33;;;;;;;8.05;4.90;;;;;;;16.73;47.39;95601.28;5137068;27;20027;-31
2022/03/30 10:56:14;;;;;;;12.32;5.75;;;;;;;16.76;47.57;95599.56;5137169;27;20477;-32
2022/03/30 10:59:00;;;;;;;12.40;5.97;;;;;;;16.78;47.46;95600.59;5136969;27;20377;-31
2022/03/30 11:01:33;;;;;;;12.25;5.82;;;;;;;16.75;47.77;95596.09;5136813;27;20092;-31
2022/03/30 11:04:02;;;;;;;12.15;5.38;;;;;;;16.75;47.87;95590.59;5136959;27;20019;-31
2022/03/30 11:06:36;;;;;;;17.15;6.38;;;;;;;16.77;47.84;95584.66;5136757;27;20058;-31
2022/03/30 11:09:09;;;;;;;12.50;5.90;;;;;;;16.74;48.14;95591.84;5135940;27;20368;-31
2022/03/30 11:11:39;;;;;;;12.30;5.82;;;;;;;16.78;47.82;95584.16;5136570;27;20105;-31
2022/03/30 11:14:32;;;;;;;12.73;6.15;;;;;;;16.79;48.00;95585.66;5136656;27;20035;-31
2022/03/30 11:17:04;;;;;;;9.60;5.22;;;;;;;16.73;48.04;95584.88;5136388;27;20026;-31
2022/03/30 11:19:58;;;;;;;10.38;5.70;;;;;;;16.75;47.90;95579.66;5118116;27;20479;-31
2022/03/30 11:22:28;;;;;;;11.43;5.80;;;;;;;16.77;47.92;95579.16;5136329;27;20090;-31
2022/03/30 11:25:10;;;;;;;9.05;5.53;;;;;;;16.78;47.90;95573.22;5117911;27;20027;-31
2022/03/30 11:27:37;;;;;;;11.23;5.45;;;;;;;16.77;47.95;95579.16;5136496;27;20360;-31
2022/03/30 11:30:15;;;;;;;10.25;5.20;;;;;;;16.71;48.05;95579.13;5136196;27;20027;-31
2022/03/30 11:33:02;;;;;;;11.40;5.22;;;;;;;16.74;48.21;95569.94;5136257;27;20023;-32
2022/03/30 11:35:34;;;;;;;11.35;4.80;;;;;;;16.83;47.71;95569.75;5135706;27;20065;-31
2022/03/30 11:38:05;;;;;;;10.07;5.25;;;;;;;16.80;47.89;95564.50;5135968;27;20467;-31
2022/03/30 11:40:35;;;;;;;16.42;5.70;;;;;;;16.70;48.41;95550.25;5136011;27;20061;-31
2022/03/30 11:43:04;;;;;;;14.07;5.60;;;;;;;16.81;47.97;95539.34;5136236;27;20093;-31